Time;durP1;ratioP1;P1;durP2;ratioP2;P2;SDS_P1;SDS_P2;PMS_P1;PMS_P2;Temp;Humidity;BMP_temperature;BMP_pressure;BME280_temperature;BME280_humidity;BME280_pressure;Samples;Min_cycle;Max_cycle;Signal;HPM_P1;HPM_P2
2021/01/12 00:01:42;;;;;;;10.38;3.72;;;25.40;58.00;;;;;;5065904;28;20389;-69
2021/01/12 00:04:09;;;;;;;11.95;3.40;;;25.40;58.10;;;;;;5067186;28;20055;-69
2021/01/12 00:06:35;;;;;;;10.45;3.28;;;25.40;58.20;;;;;;5064987;28;20037;-69
2021/01/12 00:09:03;;;;;;;9.75;4.53;;;25.40;58.30;;;;;;5067318;28;20040;-69
2021/01/12 00:11:29;;;;;;;7.10;3.03;;;25.40;58.30;;;;;;5067404;28;20021;-69
2021/01/12 00:13:56;;;;;;;6.63;2.95;;;25.30;58.30;;;;;;5066258;28;20048;-69
2021/01/12 00:16:22;;;;;;;11.32;3.20;;;25.40;58.40;;;;;;5065839;28;20074;-68
2021/01/12 00:18:49;;;;;;;10.40;3.33;;;25.30;58.30;;;;;;5066354;28;20475;-68
2021/01/12 00:21:16;;;;;;;8.77;3.28;;;25.30;58.40;;;;;;5064091;28;20025;-69
2021/01/12 00:23:42;;;;;;;9.63;3.05;;;25.30;58.40;;;;;;5067288;28;20020;-69
2021/01/12 00:26:09;;;;;;;9.05;2.83;;;25.30;58.50;;;;;;5065397;28;20092;-69
2021/01/12 00:28:36;;;;;;;10.95;2.80;;;25.30;58.60;;;;;;5062776;28;20411;-69
2021/01/12 00:31:06;;;;;;;8.30;2.40;;;25.30;58.70;;;;;;5060698;28;20075;-69
2021/01/12 00:33:33;;;;;;;5.53;2.03;;;25.30;58.70;;;;;;5066815;28;20417;-70
2021/01/12 00:36:07;;;;;;;10.00;3.10;;;25.30;58.70;;;;;;5062678;28;20047;-69
2021/01/12 00:38:35;;;;;;;8.48;2.95;;;25.30;58.70;;;;;;5060310;28;20020;-68
2021/01/12 00:41:07;;;;;;;7.28;3.20;;;25.30;58.70;;;;;;5067754;28;20514;-71
2021/01/12 00:43:34;;;;;;;12.27;2.60;;;25.30;58.70;;;;;;5066677;28;20486;-69
2021/01/12 00:46:00;;;;;;;8.80;3.35;;;25.20;58.60;;;;;;5065741;28;20369;-70
2021/01/12 00:48:27;;;;;;;8.73;3.30;;;25.20;58.70;;;;;;5062830;28;20024;-70
2021/01/12 00:50:53;;;;;;;9.20;2.50;;;25.20;58.70;;;;;;5065055;28;20063;-70
2021/01/12 00:53:20;;;;;;;6.28;2.45;;;25.20;58.80;;;;;;5064854;28;20036;-70
2021/01/12 00:55:46;;;;;;;12.20;2.55;;;25.20;58.90;;;;;;5062490;28;20048;-70
2021/01/12 00:58:13;;;;;;;11.80;3.35;;;25.20;59.00;;;;;;5061302;28;20040;-70
2021/01/12 01:00:39;;;;;;;10.23;2.10;;;25.20;59.10;;;;;;5066706;28;20017;-70
2021/01/12 01:03:05;;;;;;;6.28;2.40;;;25.20;59.20;;;;;;5066003;28;20032;-70
2021/01/12 01:05:32;;;;;;;11.68;3.25;;;25.10;59.10;;;;;;5060613;28;20052;-70
2021/01/12 01:08:00;;;;;;;5.40;3.03;;;25.10;59.10;;;;;;5067447;28;20040;-69
2021/01/12 01:10:26;;;;;;;5.78;2.22;;;25.20;59.10;;;;;;5065174;28;20480;-70
2021/01/12 01:12:53;;;;;;;9.32;2.92;;;25.10;59.00;;;;;;5065512;28;20040;-69
2021/01/12 01:15:20;;;;;;;8.48;2.42;;;25.10;59.00;;;;;;5065110;28;20025;-70
2021/01/12 01:17:46;;;;;;;7.50;2.95;;;25.10;59.10;;;;;;5063023;28;20042;-70
2021/01/12 01:20:13;;;;;;;10.15;2.67;;;25.10;59.20;;;;;;5063506;28;20498;-70
2021/01/12 01:22:40;;;;;;;8.02;3.58;;;25.10;59.30;;;;;;5063579;28;20026;-71
2021/01/12 01:25:07;;;;;;;10.90;3.05;;;25.10;59.40;;;;;;5066315;28;20016;-71
2021/01/12 01:27:34;;;;;;;13.45;2.97;;;25.10;59.50;;;;;;5063712;28;20040;-70
2021/01/12 01:30:00;;;;;;;7.68;2.55;;;25.00;59.50;;;;;;5065057;28;20043;-70
2021/01/12 01:32:27;;;;;;;6.38;2.65;;;25.10;59.70;;;;;;5063856;28;20028;-69
2021/01/12 01:34:53;;;;;;;8.80;2.45;;;25.00;59.80;;;;;;5057628;28;20028;-69
2021/01/12 01:37:20;;;;;;;9.80;2.50;;;25.00;59.80;;;;;;5062902;28;20023;-69
2021/01/12 01:39:46;;;;;;;11.10;2.55;;;25.00;59.90;;;;;;5062837;28;20027;-69
2021/01/12 01:42:12;;;;;;;7.53;3.47;;;25.00;60.00;;;;;;5063790;28;20029;-69
2021/01/12 01:44:39;;;;;;;8.75;2.42;;;25.00;60.00;;;;;;5064059;28;20031;-69
2021/01/12 01:47:06;;;;;;;7.05;2.40;;;25.00;60.00;;;;;;5062396;28;20404;-69
2021/01/12 01:49:32;;;;;;;7.60;2.38;;;25.00;60.10;;;;;;5067277;28;20020;-69
2021/01/12 01:52:00;;;;;;;8.55;2.42;;;25.00;60.10;;;;;;5065681;28;20371;-69
2021/01/12 01:54:27;;;;;;;8.05;2.67;;;25.00;60.10;;;;;;5064763;28;20036;-68
2021/01/12 01:56:54;;;;;;;8.48;2.55;;;25.00;60.10;;;;;;5062633;28;20020;-69
2021/01/12 01:59:20;;;;;;;5.85;2.15;;;25.00;60.10;;;;;;5063185;28;20119;-69
2021/01/12 02:01:47;;;;;;;11.13;2.70;;;25.00;60.20;;;;;;5057814;28;20170;-69
2021/01/12 02:04:24;;;;;;;6.85;3.63;;;25.00;60.30;;;;;;5064700;28;20179;-69
2021/01/12 02:06:51;;;;;;;7.20;2.40;;;24.90;60.30;;;;;;5067568;28;20123;-69
2021/01/12 02:09:23;;;;;;;8.27;2.28;;;24.90;60.50;;;;;;5067830;28;20013;-69
2021/01/12 02:11:56;;;;;;;9.63;2.60;;;24.90;60.50;;;;;;5067133;28;20026;-69
2021/01/12 02:14:27;;;;;;;7.10;1.88;;;24.90;60.60;;;;;;5061183;28;20157;-68
2021/01/12 02:16:56;;;;;;;7.45;2.30;;;24.90;60.80;;;;;;5065394;28;20116;-69
2021/01/12 02:19:28;;;;;;;8.88;2.42;;;24.80;60.80;;;;;;5066894;28;20013;-68
2021/01/12 02:22:03;;;;;;;6.28;3.13;;;24.90;60.90;;;;;;5067052;28;20032;-69
2021/01/12 02:24:31;;;;;;;4.63;2.58;;;24.80;60.90;;;;;;5063936;28;20036;-69
2021/01/12 02:26:57;;;;;;;5.65;1.95;;;24.80;60.90;;;;;;5066271;28;20063;-68
2021/01/12 02:29:24;;;;;;;6.03;1.90;;;24.80;61.00;;;;;;5064567;28;20028;-68
2021/01/12 02:31:51;;;;;;;9.10;2.63;;;24.80;61.00;;;;;;5064686;28;20067;-69
2021/01/12 02:34:19;;;;;;;6.93;2.83;;;24.80;61.10;;;;;;5065761;28;20021;-68
2021/01/12 02:36:49;;;;;;;8.07;2.30;;;24.80;61.10;;;;;;5062565;28;20021;-68
2021/01/12 02:39:16;;;;;;;7.90;1.95;;;24.80;61.20;;;;;;5061424;28;20051;-69
2021/01/12 02:41:42;;;;;;;8.82;2.30;;;24.80;61.20;;;;;;5061900;28;20025;-69
2021/01/12 02:44:23;;;;;;;8.38;3.25;;;24.80;61.30;;;;;;5062820;28;20017;-68
2021/01/12 02:46:52;;;;;;;8.43;2.55;;;24.70;61.30;;;;;;5063800;28;20052;-69
2021/01/12 02:49:19;;;;;;;15.50;3.70;;;24.70;61.50;;;;;;5064985;28;20051;-68
2021/01/12 02:51:45;;;;;;;13.95;3.38;;;24.70;61.50;;;;;;5066461;28;20593;-69
2021/01/12 02:54:12;;;;;;;8.65;2.55;;;24.70;62.20;;;;;;5065127;28;20027;-69
2021/01/12 02:56:38;;;;;;;10.18;2.85;;;24.70;61.60;;;;;;5060325;28;20476;-69
2021/01/12 02:59:05;;;;;;;8.52;2.92;;;24.70;61.60;;;;;;5067042;28;20036;-69
2021/01/12 03:01:31;;;;;;;7.60;4.25;;;24.70;61.70;;;;;;5061851;28;20373;-70
2021/01/12 03:03:58;;;;;;;8.68;2.70;;;24.70;61.60;;;;;;5065605;28;20033;-69
2021/01/12 03:06:24;;;;;;;11.52;3.78;;;24.70;61.60;;;;;;5060900;28;20035;-68
2021/01/12 03:08:51;;;;;;;7.88;2.55;;;24.60;61.60;;;;;;5063587;28;20032;-69
2021/01/12 03:11:17;;;;;;;7.30;3.45;;;24.70;61.70;;;;;;5067516;28;20020;-69
2021/01/12 03:14:24;;;;;;;9.23;2.65;;;24.60;61.60;;;;;;5059636;28;20430;-69
2021/01/12 03:17:30;;;;;;;5.00;2.15;;;24.60;61.70;;;;;;5064495;28;20053;-69
2021/01/12 03:20:16;;;;;;;;;;;24.60;61.70;;;;;;5062038;28;20039;-68
2021/01/12 03:23:22;;;;;;;6.75;4.03;;;24.60;61.80;;;;;;5062333;28;19912;-68
2021/01/12 03:26:28;;;;;;;5.72;2.45;;;24.60;61.80;;;;;;5065493;28;20043;-69
2021/01/12 03:29:34;;;;;;;8.88;2.67;;;24.60;61.90;;;;;;5067773;28;20045;-68
2021/01/12 03:32:20;;;;;;;;;;;24.60;61.90;;;;;;5064123;28;20052;-68
2021/01/12 03:35:26;;;;;;;9.07;3.05;;;24.60;61.90;;;;;;5063542;28;19914;-70
2021/01/12 03:38:32;;;;;;;12.07;3.38;;;24.50;61.90;;;;;;5061189;28;20068;-69
2021/01/12 03:41:38;;;;;;;9.90;3.42;;;24.50;61.90;;;;;;5063460;28;20044;-69
2021/01/12 03:44:15;;;;;;;;;;;24.50;62.00;;;;;;5064633;28;20070;-68
2021/01/12 03:46:43;;;;;;;10.18;3.83;;;24.40;62.00;;;;;;5076379;28;20007;-69
2021/01/12 03:49:09;;;;;;;12.65;3.20;;;24.40;62.00;;;;;;5064625;28;20567;-69
2021/01/12 03:51:36;;;;;;;9.68;3.85;;;24.40;62.10;;;;;;5066190;28;20064;-68
2021/01/12 03:54:02;;;;;;;10.10;3.38;;;24.40;62.10;;;;;;5064124;28;20033;-69
2021/01/12 03:56:29;;;;;;;9.30;3.58;;;24.40;62.20;;;;;;5064282;28;20488;-67
2021/01/12 03:58:55;;;;;;;11.85;3.75;;;24.40;62.30;;;;;;5064725;28;20021;-68
2021/01/12 04:01:22;;;;;;;12.38;2.78;;;24.40;62.30;;;;;;5060600;28;20017;-68
2021/01/12 04:03:48;;;;;;;10.90;2.25;;;24.40;62.40;;;;;;5064737;28;20078;-68
2021/01/12 04:06:18;;;;;;;10.15;2.80;;;24.40;62.40;;;;;;5065777;28;20051;-68
2021/01/12 04:08:47;;;;;;;9.75;3.35;;;24.40;62.50;;;;;;5062003;28;20041;-69
2021/01/12 04:11:15;;;;;;;11.40;4.55;;;24.40;62.50;;;;;;5063084;28;20123;-67
2021/01/12 04:13:42;;;;;;;19.17;13.85;;;24.30;62.60;;;;;;5060648;28;20016;-68
2021/01/12 04:16:08;;;;;;;15.00;11.38;;;24.40;62.70;;;;;;5065208;28;20036;-68
2021/01/12 04:18:35;;;;;;;14.35;8.95;;;24.40;62.80;;;;;;5064765;28;20025;-68
2021/01/12 04:21:02;;;;;;;19.08;6.40;;;24.30;62.80;;;;;;5064643;28;20108;-68
2021/01/12 04:23:29;;;;;;;9.68;4.88;;;24.30;62.80;;;;;;5061942;28;20021;-68
2021/01/12 04:25:56;;;;;;;10.00;4.25;;;24.30;63.00;;;;;;5065503;28;20395;-69
2021/01/12 04:28:23;;;;;;;12.10;3.53;;;24.30;63.00;;;;;;5062649;28;20036;-68
2021/01/12 04:30:49;;;;;;;9.88;4.10;;;24.30;63.10;;;;;;5062984;28;20021;-69
2021/01/12 04:33:16;;;;;;;10.75;2.85;;;24.30;63.10;;;;;;5061811;28;20043;-69
2021/01/12 04:36:22;;;;;;;9.23;2.47;;;24.40;63.10;;;;;;5062089;28;20025;-69
2021/01/12 04:39:08;;;;;;;;;;;24.40;63.10;;;;;;5065803;28;20835;-68
2021/01/12 04:42:14;;;;;;;10.65;7.25;;;24.30;63.50;;;;;;5059701;28;19931;-68
2021/01/12 04:45:23;;;;;;;14.57;7.22;;;24.30;63.60;;;;;;5065523;28;20588;-68
2021/01/12 04:48:07;;;;;;;10.50;4.22;;;24.30;63.50;;;;;;5060873;28;20555;-71
2021/01/12 04:50:33;;;;;;;10.60;4.35;;;24.30;63.40;;;;;;5061361;28;20501;-68
2021/01/12 04:53:00;;;;;;;8.85;3.28;;;24.30;63.50;;;;;;5065414;28;20089;-68
2021/01/12 04:55:27;;;;;;;7.57;2.58;;;24.30;63.60;;;;;;5066405;28;20035;-68
2021/01/12 04:57:53;;;;;;;8.15;2.45;;;24.30;63.60;;;;;;5065397;28;20024;-68
2021/01/12 05:00:29;;;;;;;8.38;3.08;;;24.30;63.50;;;;;;5069145;28;20028;-68
2021/01/12 05:03:08;;;;;;;8.30;3.78;;;24.30;63.40;;;;;;5064820;28;20024;-68
2021/01/12 05:05:39;;;;;;;9.38;2.80;;;24.40;63.40;;;;;;5065878;28;20060;-68
2021/01/12 05:08:07;;;;;;;9.85;2.22;;;24.30;63.20;;;;;;5066363;28;20060;-68
2021/01/12 05:10:40;;;;;;;16.48;3.35;;;24.40;63.70;;;;;;5068938;28;20388;-68
2021/01/12 05:13:11;;;;;;;7.78;2.20;;;24.40;63.30;;;;;;5066258;28;20036;-68
2021/01/12 05:15:46;;;;;;;9.98;2.88;;;24.40;63.20;;;;;;5060101;28;20081;-68
2021/01/12 05:18:17;;;;;;;8.93;3.13;;;24.40;63.20;;;;;;5067174;28;20028;-68
2021/01/12 05:21:29;;;;;;;11.27;2.70;;;24.40;63.20;;;;;;5063356;28;20024;-68
2021/01/12 05:24:45;;;;;;;6.85;3.10;;;24.40;63.10;;;;;;5064355;28;20711;-68
2021/01/12 05:27:51;;;;;;;8.93;2.55;;;24.40;63.00;;;;;;5069446;28;20060;-68
2021/01/12 05:30:57;;;;;;;6.25;2.42;;;24.40;62.90;;;;;;5063040;28;20503;-68
2021/01/12 05:33:44;;;;;;;;;;;24.50;63.00;;;;;;5062533;28;20101;-68
2021/01/12 05:36:30;;;;;;;;;;;24.50;62.90;;;;;;5069062;28;19908;-68
2021/01/12 05:39:38;;;;;;;4.38;2.45;;;24.60;62.80;;;;;;5065269;28;19908;-68
2021/01/12 05:42:44;;;;;;;10.10;2.13;;;24.50;62.50;;;;;;5064744;28;20066;-68
2021/01/12 05:45:30;;;;;;;;;;;24.60;62.50;;;;;;5066436;28;20525;-68
2021/01/12 05:47:57;;;;;;;;;;;24.60;62.40;;;;;;5064855;28;19920;-68
2021/01/12 05:50:26;;;;;;;6.43;2.17;;;24.60;62.40;;;;;;5064861;28;20442;-68
2021/01/12 05:53:04;;;;;;;8.40;2.38;;;24.60;62.30;;;;;;5067957;28;20360;-68
2021/01/12 05:55:44;;;;;;;5.50;2.08;;;24.70;62.40;;;;;;5062929;28;20025;-68
2021/01/12 05:58:17;;;;;;;7.80;3.10;;;24.70;62.30;;;;;;5066061;28;20048;-68
2021/01/12 06:01:23;;;;;;;4.30;1.85;;;24.70;62.20;;;;;;5065083;28;20438;-68
2021/01/12 06:04:29;;;;;;;5.35;2.20;;;24.70;62.20;;;;;;5064853;28;20020;-69
2021/01/12 06:07:36;;;;;;;7.00;2.28;;;24.80;62.20;;;;;;5063723;28;20123;-68
2021/01/12 06:10:42;;;;;;;8.38;2.47;;;24.80;62.10;;;;;;5065322;28;20033;-69
2021/01/12 06:13:28;;;;;;;;;;;24.90;62.10;;;;;;5066007;28;20111;-69
2021/01/12 06:16:34;;;;;;;10.32;3.17;;;24.90;62.00;;;;;;5066092;28;20420;-69
2021/01/12 06:19:43;;;;;;;8.48;2.72;;;25.00;61.90;;;;;;5061866;28;20028;-69
2021/01/12 06:22:33;;;;;;;9.13;2.65;;;25.00;61.80;;;;;;5068055;28;20475;-69
2021/01/12 06:25:31;;;;;;;7.57;3.13;;;25.00;61.70;;;;;;5060907;28;20044;-69
2021/01/12 06:27:58;;;;;;;7.18;2.85;;;25.10;61.70;;;;;;5062466;28;20037;-69
2021/01/12 06:30:25;;;;;;;3.28;1.95;;;25.10;61.60;;;;;;5068857;28;20017;-69
2021/01/12 06:32:53;;;;;;;7.20;1.90;;;25.10;61.50;;;;;;5065052;28;20487;-69
2021/01/12 06:35:20;;;;;;;5.07;2.00;;;25.20;61.50;;;;;;5067806;28;20036;-68
2021/01/12 06:37:50;;;;;;;7.68;2.00;;;25.20;61.40;;;;;;5062822;28;20032;-69
2021/01/12 06:40:19;;;;;;;6.72;1.88;;;25.30;61.30;;;;;;5063987;28;20021;-68
2021/01/12 06:42:46;;;;;;;8.73;2.15;;;25.30;61.20;;;;;;5062979;28;20016;-68
2021/01/12 06:45:13;;;;;;;7.25;2.90;;;25.40;61.10;;;;;;5065047;28;20114;-69
2021/01/12 06:47:40;;;;;;;5.30;2.63;;;25.40;61.00;;;;;;5063962;28;20032;-69
2021/01/12 06:50:12;;;;;;;9.20;2.30;;;25.40;60.90;;;;;;5067486;28;20028;-69
2021/01/12 06:52:47;;;;;;;5.05;2.03;;;25.40;60.80;;;;;;5068530;28;20127;-68
2021/01/12 06:55:23;;;;;;;5.03;2.50;;;25.50;60.70;;;;;;5061037;28;20337;-69
2021/01/12 06:57:54;;;;;;;8.40;3.10;;;25.50;61.30;;;;;;5066401;28;20021;-69
2021/01/12 07:00:21;;;;;;;6.70;2.70;;;25.50;60.60;;;;;;5057483;28;20119;-69
2021/01/12 07:02:58;;;;;;;7.18;2.30;;;25.60;60.60;;;;;;5065863;28;20025;-68
2021/01/12 07:05:25;;;;;;;8.68;2.08;;;25.60;60.50;;;;;;5061920;28;20166;-69
2021/01/12 07:07:53;;;;;;;8.02;2.67;;;25.60;60.40;;;;;;5063269;28;20029;-69
2021/01/12 07:10:25;;;;;;;10.57;3.00;;;25.70;60.40;;;;;;5067582;28;20035;-69
2021/01/12 07:12:53;;;;;;;7.70;3.15;;;25.70;60.30;;;;;;5064902;28;20075;-69
2021/01/12 07:15:21;;;;;;;9.45;2.33;;;25.80;60.30;;;;;;5066987;28;20021;-69
2021/01/12 07:17:53;;;;;;;7.05;2.92;;;25.80;60.20;;;;;;5063496;28;20028;-69
2021/01/12 07:20:22;;;;;;;7.95;2.50;;;25.80;60.10;;;;;;5062725;28;20035;-69
2021/01/12 07:22:57;;;;;;;7.38;3.05;;;25.90;60.10;;;;;;5066115;28;20487;-69
2021/01/12 07:25:29;;;;;;;5.60;2.42;;;25.90;60.00;;;;;;5064595;28;20468;-69
2021/01/12 07:28:04;;;;;;;7.60;2.67;;;25.90;59.90;;;;;;5061997;28;20037;-69
2021/01/12 07:30:33;;;;;;;8.15;2.53;;;26.00;59.80;;;;;;5058011;28;20021;-69
2021/01/12 07:33:07;;;;;;;7.38;2.58;;;26.10;59.80;;;;;;5062633;28;20387;-69
2021/01/12 07:35:36;;;;;;;6.00;2.17;;;26.10;59.70;;;;;;5061628;28;20375;-69
2021/01/12 07:38:03;;;;;;;8.80;3.53;;;26.10;59.50;;;;;;5060109;28;20308;-69
2021/01/12 07:40:32;;;;;;;5.25;2.30;;;26.20;59.40;;;;;;5065881;28;20500;-69
2021/01/12 07:43:00;;;;;;;7.25;2.20;;;26.20;59.20;;;;;;5064242;28;20028;-69
2021/01/12 07:45:35;;;;;;;8.38;2.45;;;26.30;59.10;;;;;;5063348;28;20031;-69
2021/01/12 07:48:03;;;;;;;5.95;1.65;;;26.30;58.90;;;;;;5063838;28;20036;-69
2021/01/12 07:50:31;;;;;;;9.32;3.08;;;26.30;58.90;;;;;;5062707;28;20134;-69
2021/01/12 07:52:58;;;;;;;11.13;4.00;;;26.40;58.80;;;;;;5066022;28;20025;-69
2021/01/12 07:55:26;;;;;;;7.45;3.45;;;26.40;58.70;;;;;;5058642;28;20005;-69
2021/01/12 07:57:53;;;;;;;10.25;4.18;;;26.50;58.70;;;;;;5060982;28;20051;-69
2021/01/12 08:00:20;;;;;;;8.13;2.25;;;26.50;58.60;;;;;;5064177;28;20025;-69
2021/01/12 08:02:52;;;;;;;11.68;3.53;;;26.60;58.50;;;;;;5062485;28;20071;-69
2021/01/12 08:05:21;;;;;;;7.05;2.88;;;26.60;58.30;;;;;;5058327;28;20044;-69
2021/01/12 08:07:48;;;;;;;8.35;2.58;;;26.70;58.10;;;;;;5059944;28;20033;-69
2021/01/12 08:10:15;;;;;;;7.10;2.28;;;26.70;58.00;;;;;;5066014;28;20360;-69
2021/01/12 08:12:41;;;;;;;5.97;2.40;;;26.80;58.00;;;;;;5063935;28;20095;-69
2021/01/12 08:15:13;;;;;;;6.57;2.95;;;26.90;58.00;;;;;;5066426;28;20051;-69
2021/01/12 08:17:50;;;;;;;9.18;3.70;;;26.90;57.80;;;;;;5064644;28;20565;-69
2021/01/12 08:20:18;;;;;;;7.85;2.47;;;27.00;57.70;;;;;;5061343;28;20103;-69
2021/01/12 08:23:31;;;;;;;7.90;1.90;;;27.00;57.70;;;;;;5066514;28;20107;-70
2021/01/12 08:26:37;;;;;;;8.48;2.78;;;27.10;57.40;;;;;;5063929;28;20037;-69
2021/01/12 08:29:43;;;;;;;6.38;2.50;;;27.20;57.40;;;;;;5068229;28;20045;-69
2021/01/12 08:32:49;;;;;;;5.90;2.83;;;27.30;57.30;;;;;;5067227;28;20060;-69
2021/01/12 08:36:02;;;;;;;7.25;2.72;;;27.40;57.20;;;;;;5060836;28;20027;-69
2021/01/12 08:39:08;;;;;;;6.15;2.50;;;27.40;57.00;;;;;;5066386;28;20028;-69
2021/01/12 08:42:14;;;;;;;4.70;2.08;;;27.50;56.80;;;;;;5068557;28;20029;-69
2021/01/12 08:45:20;;;;;;;7.68;2.50;;;27.60;56.90;;;;;;5065119;28;20331;-69
2021/01/12 08:48:26;;;;;;;5.63;2.15;;;27.70;56.90;;;;;;5067263;28;20085;-69
2021/01/12 08:51:32;;;;;;;6.32;3.47;;;27.80;56.60;;;;;;5066119;28;20036;-70
2021/01/12 08:54:38;;;;;;;6.90;2.95;;;27.80;56.40;;;;;;5066862;28;20051;-69
2021/01/12 08:57:44;;;;;;;8.70;3.42;;;27.90;56.40;;;;;;5066790;28;20032;-69
2021/01/12 09:00:54;;;;;;;6.70;2.83;;;28.10;56.30;;;;;;5065319;28;20716;-69
2021/01/12 09:04:00;;;;;;;11.98;2.80;;;28.10;56.20;;;;;;5066069;28;20419;-69
2021/01/12 09:07:06;;;;;;;7.72;2.42;;;28.20;55.90;;;;;;5067770;28;20494;-69
2021/01/12 09:10:12;;;;;;;6.38;1.85;;;28.30;55.70;;;;;;5065185;28;20119;-69
2021/01/12 09:13:18;;;;;;;6.68;2.15;;;28.40;55.50;;;;;;5063834;28;20032;-69
2021/01/12 09:16:24;;;;;;;6.82;2.22;;;28.40;55.60;;;;;;5066596;28;20025;-70
2021/01/12 09:19:35;;;;;;;7.43;2.40;;;28.50;55.70;;;;;;5066400;28;20436;-70
2021/01/12 09:22:47;;;;;;;13.52;2.28;;;28.60;55.60;;;;;;5066267;28;20020;-70
2021/01/12 09:25:53;;;;;;;6.43;2.10;;;28.60;55.40;;;;;;5067442;28;20029;-70
2021/01/12 09:29:00;;;;;;;6.85;2.50;;;28.70;56.00;;;;;;5065429;28;20040;-69
2021/01/12 09:32:06;;;;;;;6.55;1.83;;;28.70;55.50;;;;;;5063215;28;20024;-69
2021/01/12 09:35:12;;;;;;;13.73;2.65;;;28.70;55.30;;;;;;5066003;28;20376;-70
2021/01/12 09:38:18;;;;;;;10.13;2.20;;;28.80;55.40;;;;;;5067206;28;20028;-69
2021/01/12 09:41:24;;;;;;;8.27;2.80;;;28.90;55.30;;;;;;5064573;28;20382;-69
2021/01/12 09:44:30;;;;;;;5.78;2.58;;;29.00;55.20;;;;;;5063854;28;20495;-69
2021/01/12 09:47:37;;;;;;;13.15;3.00;;;29.00;54.90;;;;;;5063602;28;20044;-70
2021/01/12 09:50:05;;;;;;;10.43;2.03;;;29.10;54.70;;;;;;5066534;28;20017;-70
2021/01/12 09:52:32;;;;;;;8.02;2.28;;;29.10;54.70;;;;;;5062910;28;20012;-69
2021/01/12 09:55:38;;;;;;;8.20;1.90;;;29.10;54.50;;;;;;5065356;28;20028;-70
2021/01/12 09:58:44;;;;;;;6.93;2.80;;;29.20;54.00;;;;;;5063515;28;20024;-70
2021/01/12 10:01:50;;;;;;;6.13;2.08;;;29.10;53.30;;;;;;5066877;28;20052;-70
2021/01/12 10:04:56;;;;;;;11.25;2.80;;;29.10;52.70;;;;;;5065777;28;20033;-69
2021/01/12 10:08:02;;;;;;;8.10;2.83;;;29.00;51.90;;;;;;5065688;28;20039;-70
2021/01/12 10:11:09;;;;;;;6.47;2.03;;;29.00;52.00;;;;;;5061108;28;20025;-68
2021/01/12 10:14:15;;;;;;;6.55;2.53;;;29.10;51.30;;;;;;5064078;28;20021;-68
2021/01/12 10:17:21;;;;;;;10.15;3.00;;;29.10;51.80;;;;;;5062002;28;20048;-69
2021/01/12 10:20:27;;;;;;;5.30;2.05;;;29.20;51.60;;;;;;5061266;28;20036;-69
2021/01/12 10:23:33;;;;;;;6.00;2.22;;;29.20;51.20;;;;;;5062993;28;20028;-70
2021/01/12 10:26:39;;;;;;;11.80;2.63;;;29.30;50.80;;;;;;5066528;28;20025;-70
2021/01/12 10:29:06;;;;;;;9.40;2.83;;;29.40;50.40;;;;;;5064840;28;20048;-70
2021/01/12 10:31:33;;;;;;;8.10;1.80;;;29.50;50.10;;;;;;5066142;28;20033;-69
2021/01/12 10:33:59;;;;;;;7.57;2.65;;;29.50;49.70;;;;;;5064196;28;20502;-70
2021/01/12 10:36:26;;;;;;;5.32;1.80;;;29.50;49.30;;;;;;5065505;28;20025;-70
2021/01/12 10:38:52;;;;;;;6.03;1.85;;;29.60;49.50;;;;;;5064883;28;20031;-70
2021/01/12 10:41:19;;;;;;;7.05;2.20;;;29.70;48.70;;;;;;5065385;28;20020;-70
2021/01/12 10:44:25;;;;;;;5.45;2.20;;;29.70;48.70;;;;;;5063997;28;20063;-70
2021/01/12 10:47:35;;;;;;;4.68;2.35;;;29.80;49.30;;;;;;5063773;28;20040;-70
2021/01/12 10:50:44;;;;;;;10.05;2.90;;;30.00;50.40;;;;;;5060860;28;20118;-71
2021/01/12 10:53:50;;;;;;;8.13;5.13;;;30.20;50.50;;;;;;5062264;28;20020;-70
2021/01/12 10:56:57;;;;;;;8.27;4.70;;;30.30;50.50;;;;;;5060706;28;20021;-70
2021/01/12 11:00:03;;;;;;;6.82;2.78;;;30.50;50.60;;;;;;5061214;28;20550;-70
2021/01/12 11:03:12;;;;;;;6.97;2.50;;;30.60;50.60;;;;;;5064397;28;21006;-69
2021/01/12 11:05:39;;;;;;;5.13;1.92;;;30.70;50.50;;;;;;5060973;28;20071;-69
2021/01/12 11:08:06;;;;;;;8.85;2.10;;;30.80;50.40;;;;;;5063692;28;20029;-70
2021/01/12 11:10:34;;;;;;;8.70;2.58;;;30.80;50.40;;;;;;5064457;28;20074;-70
2021/01/12 11:13:02;;;;;;;4.97;1.67;;;30.80;50.40;;;;;;5063857;28;20467;-70
2021/01/12 11:15:29;;;;;;;8.02;2.10;;;30.80;50.50;;;;;;5060705;28;20020;-70
2021/01/12 11:17:56;;;;;;;6.05;2.05;;;30.80;50.40;;;;;;5063922;28;20052;-69
2021/01/12 11:20:23;;;;;;;9.68;2.65;;;30.90;50.30;;;;;;5063105;28;20024;-69
2021/01/12 11:22:49;;;;;;;6.72;2.13;;;31.00;50.30;;;;;;5064372;28;20055;-68
2021/01/12 11:25:16;;;;;;;7.78;2.42;;;31.00;50.40;;;;;;5062697;28;20021;-67
2021/01/12 11:27:43;;;;;;;6.68;2.45;;;31.00;50.30;;;;;;5062665;28;20046;-67
2021/01/12 11:30:10;;;;;;;7.22;2.00;;;31.00;50.30;;;;;;5062237;28;20352;-67
2021/01/12 11:32:39;;;;;;;10.88;2.78;;;31.10;50.30;;;;;;5061885;28;20031;-67
2021/01/12 11:35:06;;;;;;;6.38;1.92;;;31.10;50.20;;;;;;5061813;28;20020;-67
2021/01/12 11:37:33;;;;;;;7.95;2.30;;;31.20;50.10;;;;;;5063031;28;20063;-66
2021/01/12 11:40:02;;;;;;;9.80;2.53;;;31.20;49.90;;;;;;5065143;28;20066;-67
2021/01/12 11:42:28;;;;;;;4.25;1.85;;;31.30;49.70;;;;;;5063886;28;20028;-67
2021/01/12 11:44:55;;;;;;;8.65;2.25;;;31.20;49.70;;;;;;5063540;28;20556;-68
2021/01/12 11:47:23;;;;;;;5.63;2.10;;;31.30;49.60;;;;;;5063840;28;20086;-68
2021/01/12 11:49:49;;;;;;;4.30;1.65;;;31.30;49.60;;;;;;5060296;28;20491;-67
2021/01/12 11:52:17;;;;;;;8.60;2.13;;;31.20;49.60;;;;;;5067311;28;20032;-66
2021/01/12 11:54:44;;;;;;;6.65;1.63;;;31.20;49.50;;;;;;5067424;28;20029;-67
2021/01/12 11:57:13;;;;;;;9.00;2.63;;;31.20;49.40;;;;;;5068179;28;20020;-66
2021/01/12 11:59:39;;;;;;;5.93;1.77;;;31.30;49.40;;;;;;5070244;28;20096;-66
2021/01/12 12:02:06;;;;;;;3.20;1.67;;;31.30;49.50;;;;;;5066102;28;20050;-66
2021/01/12 12:04:33;;;;;;;5.20;1.65;;;31.30;49.50;;;;;;5067140;28;20116;-66
2021/01/12 12:07:02;;;;;;;4.72;1.52;;;31.30;49.40;;;;;;5080896;28;20353;-66
2021/01/12 12:09:35;;;;;;;5.45;1.60;;;31.40;49.40;;;;;;5070059;28;20085;-66
2021/01/12 12:12:02;;;;;;;3.90;1.40;;;31.50;49.20;;;;;;5067572;28;20025;-67
2021/01/12 12:14:37;;;;;;;5.80;2.05;;;31.50;49.20;;;;;;5064849;28;20021;-66
2021/01/12 12:17:04;;;;;;;5.05;1.83;;;31.60;49.20;;;;;;5065866;28;20028;-67
2021/01/12 12:19:34;;;;;;;6.18;1.85;;;31.60;49.00;;;;;;5067352;28;20012;-67
2021/01/12 12:22:06;;;;;;;3.10;1.67;;;31.60;48.90;;;;;;5066514;28;20063;-67
2021/01/12 12:24:33;;;;;;;5.75;1.70;;;31.70;48.80;;;;;;5065431;28;20055;-66
2021/01/12 12:27:01;;;;;;;6.72;1.92;;;31.70;48.70;;;;;;5067036;28;20491;-68
2021/01/12 12:29:29;;;;;;;5.20;2.05;;;31.70;48.70;;;;;;5063628;28;20020;-69
2021/01/12 12:32:02;;;;;;;5.40;1.63;;;31.80;48.50;;;;;;5067445;28;20020;-69
2021/01/12 12:34:34;;;;;;;5.82;1.90;;;31.80;48.50;;;;;;5063895;28;20092;-69
2021/01/12 12:37:01;;;;;;;7.05;2.75;;;31.90;48.20;;;;;;5066957;28;20111;-68
2021/01/12 12:39:27;;;;;;;5.38;1.85;;;31.90;48.00;;;;;;5066230;28;20025;-68
2021/01/12 12:41:54;;;;;;;5.65;1.65;;;32.00;48.10;;;;;;5065341;28;20036;-69
2021/01/12 12:44:21;;;;;;;4.35;1.98;;;32.00;48.30;;;;;;5065684;28;20032;-69
2021/01/12 12:46:48;;;;;;;6.70;1.50;;;32.00;48.20;;;;;;5066304;28;20560;-69
2021/01/12 12:49:54;;;;;;;7.28;2.22;;;32.00;48.00;;;;;;5064976;28;20016;-69
2021/01/12 12:53:00;;;;;;;9.07;2.42;;;32.10;47.90;;;;;;5067778;28;20048;-67
2021/01/12 12:56:06;;;;;;;6.53;2.00;;;32.10;48.00;;;;;;5066332;28;20032;-68
2021/01/12 12:59:12;;;;;;;9.20;2.47;;;32.10;48.00;;;;;;5066100;28;20035;-68
2021/01/12 13:02:19;;;;;;;7.22;2.13;;;32.10;48.10;;;;;;5063312;28;20017;-69
2021/01/12 13:05:25;;;;;;;9.23;2.60;;;32.00;48.00;;;;;;5065300;28;20028;-69
2021/01/12 13:07:52;;;;;;;10.35;5.55;;;32.00;48.00;;;;;;5066088;28;20037;-68
2021/01/12 13:10:19;;;;;;;11.55;4.18;;;32.00;48.10;;;;;;5065718;28;20494;-68
2021/01/12 13:12:47;;;;;;;10.70;5.53;;;32.00;48.00;;;;;;5064037;28;20108;-67
2021/01/12 13:15:19;;;;;;;10.27;3.95;;;32.00;47.90;;;;;;5063574;28;20139;-66
2021/01/12 13:17:47;;;;;;;13.00;4.97;;;32.00;48.00;;;;;;5065681;28;20037;-66
2021/01/12 13:20:15;;;;;;;9.32;4.00;;;32.00;48.00;;;;;;5064275;28;20020;-70
2021/01/12 13:22:42;;;;;;;7.78;3.90;;;32.00;48.10;;;;;;5065634;28;20048;-68
2021/01/12 13:25:09;;;;;;;9.20;4.30;;;32.00;48.20;;;;;;5062763;28;20016;-69
2021/01/12 13:28:16;;;;;;;9.13;5.13;;;31.90;48.20;;;;;;5065393;28;20029;-69
2021/01/12 13:31:23;;;;;;;18.33;10.50;;;31.90;48.30;;;;;;5064072;28;20604;-66
2021/01/12 13:34:29;;;;;;;14.07;9.38;;;31.90;48.20;;;;;;5062206;28;20028;-67
2021/01/12 13:37:36;;;;;;;14.15;8.57;;;31.90;48.10;;;;;;5065332;28;20024;-66
2021/01/12 13:40:42;;;;;;;10.68;7.57;;;32.00;48.00;;;;;;5065066;28;20025;-69
2021/01/12 13:43:48;;;;;;;17.33;8.07;;;32.00;48.00;;;;;;5062829;28;20031;-66
2021/01/12 13:46:54;;;;;;;10.48;7.40;;;32.00;48.00;;;;;;5064364;28;20634;-66